Time;durP1;ratioP1;P1;durP2;ratioP2;P2;SDS_P1;SDS_P2;PMS_P1;PMS_P2;Temp;Humidity;BMP_temperature;BMP_pressure;BME280_temperature;BME280_humidity;BME280_pressure;Samples;Min_cycle;Max_cycle;Signal;HPM_P1;HPM_P2
2022/02/03 00:05:13;;;;;;;22.13;7.40;;;2.60;99.90;;;;;;5089818;28;20532;-65
2022/02/03 00:07:56;;;;;;;25.13;7.78;;;2.70;99.90;;;;;;5093527;28;20489;-66
2022/02/03 00:24:38;;;;;;;27.85;8.57;;;2.70;99.90;;;;;;5107389;28;20520;-66
2022/02/03 00:27:34;;;;;;;26.52;8.23;;;2.70;99.90;;;;;;5108086;28;20042;-67
2022/02/03 00:30:07;;;;;;;27.50;8.30;;;2.60;99.90;;;;;;5096512;28;20490;-67
2022/02/03 00:33:05;;;;;;;28.25;8.63;;;2.60;99.90;;;;;;5088941;28;20477;-67
2022/02/03 00:36:22;;;;;;;24.98;9.05;;;2.50;99.90;;;;;;5107895;28;20429;-66
2022/02/03 00:48:16;;;;;;;22.08;8.02;;;2.50;99.90;;;;;;5091379;28;20055;-66
2022/02/03 00:50:09;;;;;;;26.15;9.65;;;2.30;99.90;;;;;;5107869;28;20042;-66
2022/02/03 00:52:38;;;;;;;29.60;9.13;;;2.30;99.90;;;;;;5107921;28;20040;-66
2022/02/03 00:55:06;;;;;;;29.42;10.00;;;2.40;99.90;;;;;;5106159;28;20379;-66
2022/02/03 00:58:03;;;;;;;27.27;9.30;;;2.40;99.90;;;;;;5095342;28;20048;-66
2022/02/03 01:00:33;;;;;;;24.95;9.13;;;2.40;99.90;;;;;;5088840;28;20073;-66
2022/02/03 01:03:13;;;;;;;27.45;9.13;;;2.40;99.90;;;;;;5107838;28;20055;-66
2022/02/03 01:05:44;;;;;;;25.65;8.85;;;2.40;99.90;;;;;;5095849;28;20403;-66
2022/02/03 01:08:19;;;;;;;23.65;8.43;;;2.50;99.90;;;;;;5099886;28;20455;-67
2022/02/03 01:10:57;;;;;;;21.17;8.30;;;2.50;99.90;;;;;;5108568;28;20062;-67
2022/02/03 01:16:12;;;;;;;25.77;8.15;;;2.60;99.90;;;;;;5106473;28;20059;-66
2022/02/03 01:19:10;;;;;;;23.48;8.32;;;2.60;99.90;;;;;;5103844;28;20422;-67
2022/02/03 01:45:57;;;;;;;21.17;8.02;;;2.70;99.90;;;;;;4985513;28;20054;-67
2022/02/03 01:51:40;;;;;;;18.13;6.70;;;2.60;99.90;;;;;;4947535;28;20399;-65
2022/02/03 01:54:07;;;;;;;22.73;7.63;;;2.60;99.90;;;;;;4935242;29;20059;-66
2022/02/03 01:56:50;;;;;;;18.88;8.02;;;2.60;99.90;;;;;;4949409;28;20516;-66
2022/02/03 01:59:23;;;;;;;23.48;7.50;;;2.60;99.90;;;;;;4949660;28;20054;-67
2022/02/03 02:01:59;;;;;;;23.42;7.85;;;2.60;99.90;;;;;;4960637;28;20501;-67
2022/02/03 02:04:38;;;;;;;20.50;6.80;;;2.60;99.90;;;;;;4968454;28;20053;-67
2022/02/03 02:07:31;;;;;;;20.95;6.85;;;2.50;99.90;;;;;;4982384;28;20176;-67
2022/02/03 02:10:21;;;;;;;17.55;6.93;;;2.60;99.90;;;;;;4967999;28;20061;-67
2022/02/03 02:13:04;;;;;;;20.67;8.02;;;2.60;99.90;;;;;;4967706;28;20160;-67
2022/02/03 02:15:59;;;;;;;23.23;7.35;;;2.50;99.90;;;;;;4966940;28;20083;-67
2022/02/03 02:43:23;;;;;;;16.48;7.65;;;2.60;99.90;;;;;;5106021;28;20077;-66
2022/02/03 02:46:02;;;;;;;17.20;8.02;;;2.60;99.90;;;;;;5109726;28;20409;-66
2022/02/03 02:48:49;;;;;;;19.75;7.85;;;2.60;99.90;;;;;;5108966;28;20059;-66
2022/02/03 02:51:26;;;;;;;21.08;7.53;;;2.60;99.90;;;;;;5042165;28;20074;-66
2022/02/03 02:54:16;;;;;;;19.10;8.18;;;2.60;99.90;;;;;;5103076;28;20051;-66
2022/02/03 03:33:22;;;;;;;29.55;10.85;;;2.80;99.90;;;;;;5106138;28;20043;-67
2022/02/03 03:35:54;;;;;;;27.63;11.38;;;2.80;99.90;;;;;;5102917;28;20567;-66
2022/02/03 03:38:29;;;;;;;25.75;11.02;;;2.90;99.90;;;;;;5096735;28;20490;-67
2022/02/03 03:40:57;;;;;;;30.02;11.25;;;2.90;99.90;;;;;;5107747;28;20050;-66
2022/02/03 03:43:42;;;;;;;28.85;12.52;;;2.90;99.90;;;;;;5107200;28;20101;-66
2022/02/03 03:46:27;;;;;;;34.55;13.30;;;3.00;99.90;;;;;;5090020;28;20036;-66
2022/02/03 03:49:22;;;;;;;29.55;13.18;;;3.00;99.90;;;;;;5106999;28;20048;-66
2022/02/03 03:52:16;;;;;;;28.13;12.82;;;3.10;99.90;;;;;;5107897;28;20481;-66
2022/02/03 03:55:02;;;;;;;26.80;12.90;;;3.10;99.90;;;;;;5107831;28;20532;-66
2022/02/03 04:31:37;;;;;;;25.58;12.43;;;3.40;99.90;;;;;;5105974;28;20039;-67
2022/02/03 04:46:25;;;;;;;30.25;13.65;;;3.50;99.90;;;;;;5103093;28;20422;-66
2022/02/03 04:55:47;;;;;;;31.45;12.02;;;3.50;99.90;;;;;;5110142;28;20040;-66
2022/02/03 05:01:47;;;;;;;;;;;3.40;99.90;;;;;;5107273;28;20051;-68
2022/02/03 05:13:24;;;;;;;27.15;12.13;;;3.50;99.90;;;;;;5107920;28;20055;-66
2022/02/03 05:43:14;;;;;;;27.35;12.65;;;3.70;99.90;;;;;;5091538;28;20047;-67
2022/02/03 06:05:23;;;;;;;33.63;12.57;;;3.80;99.90;;;;;;5079088;27;20047;-68
2022/02/03 06:13:52;;;;;;;33.15;14.63;;;4.00;99.90;;;;;;5108558;28;20066;-67
2022/02/03 06:21:49;;;;;;;34.42;16.27;;;4.10;99.90;;;;;;5108364;28;20054;-67
2022/02/03 06:29:49;;;;;;;31.25;14.63;;;4.20;99.90;;;;;;5104239;28;20125;-67
2022/02/03 06:32:17;;;;;;;26.05;13.27;;;4.30;99.90;;;;;;5083569;28;20624;-67
2022/02/03 06:34:47;;;;;;;30.58;15.35;;;4.20;99.90;;;;;;5086385;28;20039;-67
2022/02/03 06:37:14;;;;;;;28.20;13.80;;;4.30;99.90;;;;;;5106642;28;20070;-66
2022/02/03 06:39:42;;;;;;;29.88;14.38;;;4.30;99.90;;;;;;5110023;28;20055;-66
2022/02/03 06:42:10;;;;;;;26.92;14.98;;;4.30;99.90;;;;;;5110776;28;20462;-67
2022/02/03 06:47:32;;;;;;;28.17;13.57;;;4.40;99.90;;;;;;5110369;28;20051;-67
2022/02/03 06:52:57;;;;;;;36.28;18.75;;;4.40;99.90;;;;;;5100419;28;20045;-67
2022/02/03 06:58:57;;;;;;;27.70;14.35;;;4.50;99.90;;;;;;5102445;28;20051;-68
2022/02/03 07:03:39;;;;;;;29.00;14.15;;;4.60;99.90;;;;;;5095834;28;20505;-67
2022/02/03 07:06:07;;;;;;;27.58;13.48;;;4.70;99.90;;;;;;5092407;28;20495;-68
2022/02/03 07:08:36;;;;;;;28.55;13.68;;;4.70;99.90;;;;;;5095339;28;20111;-67
2022/02/03 07:11:03;;;;;;;27.50;13.77;;;4.70;99.90;;;;;;5103451;28;20040;-67
2022/02/03 07:13:33;;;;;;;25.17;14.43;;;4.80;99.90;;;;;;5098185;28;20396;-67
2022/02/03 07:16:01;;;;;;;26.52;13.75;;;4.80;99.90;;;;;;5103932;28;20051;-67
2022/02/03 07:18:28;;;;;;;31.05;14.18;;;4.80;99.90;;;;;;5106088;28;20054;-67
2022/02/03 07:20:56;;;;;;;27.05;14.48;;;4.90;99.90;;;;;;5105199;28;20459;-66
2022/02/03 07:23:23;;;;;;;32.55;14.60;;;4.90;99.90;;;;;;5105351;28;20406;-67
2022/02/03 07:25:50;;;;;;;29.17;13.00;;;5.00;99.90;;;;;;5109752;27;20043;-68
2022/02/03 07:28:17;;;;;;;31.98;14.80;;;5.00;99.90;;;;;;5106365;28;20039;-68
2022/02/03 07:30:45;;;;;;;30.42;14.05;;;5.10;99.90;;;;;;5107447;28;20074;-68
2022/02/03 07:33:13;;;;;;;26.77;12.88;;;5.10;99.90;;;;;;5104604;28;20039;-67
2022/02/03 07:35:40;;;;;;;35.75;13.57;;;5.10;99.90;;;;;;5106236;28;20529;-68
2022/02/03 07:38:08;;;;;;;29.60;14.13;;;5.20;99.90;;;;;;5108791;28;20410;-66
2022/02/03 07:40:36;;;;;;;29.55;13.18;;;5.20;99.90;;;;;;5091211;28;20056;-68
2022/02/03 07:43:08;;;;;;;31.90;14.02;;;5.20;99.90;;;;;;5109323;28;20478;-67
2022/02/03 07:45:36;;;;;;;32.75;13.77;;;5.30;99.90;;;;;;5109084;28;20044;-67
2022/02/03 07:48:04;;;;;;;24.90;13.18;;;5.30;99.90;;;;;;5109740;28;20425;-67
2022/02/03 07:50:31;;;;;;;27.55;13.73;;;5.30;99.90;;;;;;5085732;28;20478;-67
2022/02/03 07:52:59;;;;;;;28.48;13.82;;;5.40;99.90;;;;;;5104247;28;20070;-67
2022/02/03 07:55:26;;;;;;;24.90;12.90;;;5.40;99.90;;;;;;5097167;28;20518;-67
2022/02/03 07:57:55;;;;;;;31.25;14.38;;;5.50;99.90;;;;;;5099250;28;20572;-67
2022/02/03 08:00:24;;;;;;;27.60;13.80;;;5.60;99.90;;;;;;5103977;28;20050;-67
2022/02/03 08:03:13;;;;;;;29.38;13.60;;;5.50;99.90;;;;;;5085189;28;20160;-66
2022/02/03 08:05:46;;;;;;;29.55;14.15;;;5.50;99.90;;;;;;5107370;28;20044;-66
2022/02/03 08:10:46;;;;;;;27.13;13.25;;;5.50;99.90;;;;;;5101443;28;20062;-67
2022/02/03 08:13:34;;;;;;;26.80;13.80;;;5.50;99.90;;;;;;5104899;28;20039;-66
2022/02/03 08:16:09;;;;;;;30.48;13.88;;;5.60;99.90;;;;;;5100653;28;20047;-67
2022/02/03 08:18:42;;;;;;;28.95;14.82;;;5.70;99.90;;;;;;5108097;28;20066;-67
2022/02/03 08:21:12;;;;;;;29.70;14.27;;;5.80;99.90;;;;;;5088366;28;20536;-66
2022/02/03 08:24:02;;;;;;;25.77;13.18;;;5.90;99.90;;;;;;5108650;28;20039;-67
2022/02/03 08:26:45;;;;;;;27.17;14.35;;;6.00;99.90;;;;;;5108469;28;20138;-67
2022/02/03 08:29:29;;;;;;;25.25;13.98;;;6.10;99.90;;;;;;5106325;28;20067;-67
2022/02/03 08:32:16;;;;;;;26.95;13.98;;;6.00;99.90;;;;;;5107751;28;20044;-66
2022/02/03 08:37:44;;;;;;;23.75;12.43;;;6.20;99.90;;;;;;5056295;28;20068;-67
2022/02/03 08:40:23;;;;;;;28.30;13.60;;;6.20;99.90;;;;;;5050990;28;20071;-67
2022/02/03 08:42:51;;;;;;;24.70;12.45;;;6.20;99.90;;;;;;5040383;28;20048;-67
2022/02/03 08:45:18;;;;;;;23.42;12.30;;;6.20;99.90;;;;;;5044192;28;20139;-66
2022/02/03 08:47:46;;;;;;;25.63;12.88;;;6.20;99.90;;;;;;5057337;28;20414;-67
2022/02/03 08:50:14;;;;;;;25.70;12.50;;;6.30;99.90;;;;;;5055137;28;20317;-66
2022/02/03 09:39:55;;;;;;;25.08;12.70;;;7.50;99.90;;;;;;5112274;28;20543;-66
2022/02/03 09:50:34;;;;;;;26.33;14.38;;;7.70;99.90;;;;;;5025855;28;20076;-67
2022/02/03 09:53:26;;;;;;;24.02;13.32;;;7.70;99.90;;;;;;5024634;28;20153;-68
2022/02/03 09:58:27;;;;;;;23.63;13.32;;;7.80;99.90;;;;;;5028123;28;20053;-66
2022/02/03 10:03:35;;;;;;;27.05;12.98;;;7.80;99.90;;;;;;5024286;28;20057;-66
2022/02/03 10:06:12;;;;;;;26.30;14.60;;;7.90;99.90;;;;;;5024805;28;20392;-68
2022/02/03 10:08:54;;;;;;;25.55;13.38;;;7.90;99.90;;;;;;5027183;28;20606;-68
2022/02/03 10:11:26;;;;;;;20.42;12.32;;;8.00;99.90;;;;;;5015885;28;20218;-67
2022/02/03 10:14:14;;;;;;;21.70;12.32;;;8.10;99.90;;;;;;5026426;28;20117;-68
2022/02/03 10:16:43;;;;;;;22.42;12.68;;;8.20;99.90;;;;;;5026702;28;20050;-66
2022/02/03 10:19:15;;;;;;;23.63;12.48;;;8.30;99.90;;;;;;5026462;28;20080;-67
2022/02/03 10:21:47;;;;;;;26.08;13.98;;;8.30;99.90;;;;;;5025986;28;20671;-66
2022/02/03 10:24:17;;;;;;;21.63;12.30;;;8.40;99.90;;;;;;5062374;28;20051;-66
2022/02/03 10:26:51;;;;;;;20.00;12.38;;;8.40;99.90;;;;;;5109534;28;20094;-66
2022/02/03 10:29:21;;;;;;;18.98;11.30;;;8.50;99.90;;;;;;5104057;28;20036;-67
2022/02/03 10:31:50;;;;;;;20.42;12.80;;;8.60;99.90;;;;;;5100724;28;20036;-67
2022/02/03 10:34:26;;;;;;;19.00;11.35;;;8.60;99.90;;;;;;5106803;28;20136;-67
2022/02/03 10:47:50;;;;;;;19.67;10.95;;;9.10;99.90;;;;;;5100497;28;20034;-68
2022/02/03 10:53:05;;;;;;;19.63;10.52;;;9.00;99.90;;;;;;5106791;28;20083;-67
2022/02/03 11:11:38;;;;;;;13.38;8.93;;;8.80;99.90;;;;;;5098908;28;20036;-67
2022/02/03 11:14:06;;;;;;;14.40;9.52;;;8.90;99.90;;;;;;5107110;28;20039;-67
2022/02/03 11:16:39;;;;;;;14.07;8.05;;;8.80;99.90;;;;;;5103036;27;20382;-67
2022/02/03 11:19:12;;;;;;;14.75;9.02;;;8.90;99.90;;;;;;5105962;28;20431;-67
2022/02/03 11:21:43;;;;;;;13.27;8.18;;;8.90;99.90;;;;;;5095550;28;20047;-68
2022/02/03 11:24:22;;;;;;;16.30;9.45;;;8.90;99.90;;;;;;5099400;28;20517;-67
2022/02/03 12:11:31;;;;;;;8.27;4.78;;;9.30;99.90;;;;;;5024191;28;20060;-67
2022/02/03 12:19:29;;;;;;;8.50;4.22;;;10.50;99.90;;;;;;5091935;28;20073;-66
2022/02/03 12:22:38;;;;;;;7.95;4.05;;;10.80;99.90;;;;;;5105816;28;20058;-67
2022/02/03 12:25:36;;;;;;;5.53;3.40;;;11.20;99.90;;;;;;5108689;28;20040;-68
2022/02/03 12:38:53;;;;;;;4.00;2.13;;;11.00;99.90;;;;;;5081792;28;20082;-67
2022/02/03 12:41:33;;;;;;;8.27;2.50;;;10.70;99.90;;;;;;5109240;28;20711;-67
2022/02/03 12:44:07;;;;;;;6.18;2.70;;;10.50;99.90;;;;;;5107903;28;20048;-67
2022/02/03 12:46:37;;;;;;;6.15;2.88;;;10.40;99.90;;;;;;5108626;28;20032;-67
2022/02/03 12:49:05;;;;;;;4.28;1.95;;;10.20;99.90;;;;;;5089861;28;20131;-67
2022/02/03 12:51:33;;;;;;;3.58;1.80;;;10.10;99.90;;;;;;5105117;28;20064;-66
2022/02/03 12:54:11;;;;;;;3.53;1.70;;;9.90;99.90;;;;;;5088569;28;20123;-67
2022/02/03 12:56:39;;;;;;;4.32;2.67;;;9.80;99.90;;;;;;5111123;28;20063;-67
2022/02/03 12:59:11;;;;;;;4.95;2.40;;;9.70;99.90;;;;;;5112555;28;20120;-67
2022/02/03 13:01:41;;;;;;;3.83;2.03;;;9.80;99.90;;;;;;5080998;28;20048;-67
2022/02/03 13:04:17;;;;;;;3.47;1.65;;;9.70;99.90;;;;;;5093521;28;20043;-67
2022/02/03 13:07:00;;;;;;;5.13;2.10;;;9.80;99.90;;;;;;5093961;28;20387;-66
2022/02/03 13:09:33;;;;;;;;;;;9.80;99.90;;;;;;5088171;28;20498;-68
2022/02/03 13:12:22;;;;;;;2.58;1.42;;;9.80;99.90;;;;;;5112567;28;19928;-67
2022/02/03 13:14:56;;;;;;;5.25;1.60;;;9.80;99.90;;;;;;5099600;28;20032;-67
2022/02/03 13:17:33;;;;;;;2.72;1.20;;;9.90;99.90;;;;;;5097200;28;20559;-68
2022/02/03 13:20:09;;;;;;;2.55;1.23;;;9.90;99.90;;;;;;5100474;28;20043;-67
2022/02/03 13:25:22;;;;;;;3.03;1.60;;;9.80;99.90;;;;;;5103271;28;20339;-66
2022/02/03 13:30:46;;;;;;;4.05;1.95;;;9.60;99.90;;;;;;5109308;28;20057;-68
2022/02/03 13:33:17;;;;;;;4.65;1.98;;;9.40;99.90;;;;;;5110011;28;20069;-66
2022/02/03 13:35:54;;;;;;;4.95;2.28;;;9.40;99.90;;;;;;5109431;28;20104;-67
2022/02/03 13:38:44;;;;;;;4.65;2.20;;;9.40;99.90;;;;;;5111102;28;20050;-67
2022/02/03 13:41:22;;;;;;;4.72;1.70;;;9.40;99.90;;;;;;5109873;28;20128;-67
2022/02/03 13:43:50;;;;;;;4.18;1.80;;;9.40;99.90;;;;;;5092167;28;20417;-67
2022/02/03 13:46:29;;;;;;;4.57;1.60;;;9.40;99.90;;;;;;5105813;28;20062;-66
2022/02/03 13:48:58;;;;;;;3.58;2.00;;;9.40;99.90;;;;;;5073175;28;20043;-68
2022/02/03 13:51:30;;;;;;;3.53;1.80;;;9.30;99.90;;;;;;5106924;28;20119;-67
2022/02/03 13:54:09;;;;;;;4.80;2.20;;;9.40;99.90;;;;;;5106136;28;20385;-66
2022/02/03 14:22:04;;;;;;;6.38;3.33;;;9.60;99.90;;;;;;5107733;28;20599;-67
2022/02/03 14:27:22;;;;;;;6.28;3.70;;;9.60;99.90;;;;;;5109145;28;20061;-66
2022/02/03 14:29:53;;;;;;;5.65;3.83;;;9.50;99.90;;;;;;5109207;28;20046;-68
2022/02/03 14:32:35;;;;;;;9.32;4.38;;;9.40;99.90;;;;;;5091123;28;20520;-68
2022/02/03 14:35:06;;;;;;;6.47;4.00;;;9.50;99.90;;;;;;5094442;28;20143;-67
2022/02/03 14:42:41;;;;;;;6.82;4.13;;;9.40;99.90;;;;;;5109612;28;20056;-66
2022/02/03 14:45:12;;;;;;;6.47;4.40;;;9.50;99.90;;;;;;5090935;28;20050;-67
2022/02/03 14:47:40;;;;;;;9.05;4.25;;;9.40;99.90;;;;;;5109946;28;20121;-66
2022/02/03 14:50:10;;;;;;;9.27;4.95;;;9.40;99.90;;;;;;5070495;28;20043;-67
2022/02/03 14:52:58;;;;;;;6.32;4.15;;;9.40;99.90;;;;;;5090051;28;20048;-67
2022/02/03 14:58:23;;;;;;;8.60;4.72;;;9.40;99.90;;;;;;5110890;28;20497;-67
2022/02/03 15:00:51;;;;;;;8.40;4.60;;;9.40;99.90;;;;;;5110446;28;20340;-67
2022/02/03 15:03:22;;;;;;;8.80;4.82;;;9.30;99.90;;;;;;5092377;28;20419;-66
2022/02/03 15:05:54;;;;;;;8.43;5.00;;;9.20;99.90;;;;;;5109728;28;20064;-66
2022/02/03 15:08:45;;;;;;;8.60;4.95;;;9.20;99.90;;;;;;5110432;28;20132;-68
2022/02/03 15:11:26;;;;;;;8.88;5.50;;;9.20;99.90;;;;;;5083476;28;20150;-68
2022/02/03 15:13:54;;;;;;;10.05;5.80;;;9.10;99.90;;;;;;5104687;28;20040;-67
2022/02/03 15:16:21;;;;;;;9.63;5.28;;;9.10;99.90;;;;;;5107918;28;20619;-67
2022/02/03 15:19:08;;;;;;;11.68;5.72;;;9.20;99.90;;;;;;5108830;28;20036;-67
2022/02/03 15:21:36;;;;;;;12.13;6.47;;;9.20;99.90;;;;;;5104588;28;20048;-68
2022/02/03 15:24:03;;;;;;;9.43;6.20;;;9.20;99.90;;;;;;5098787;28;20047;-68
2022/02/03 15:26:31;;;;;;;11.27;5.68;;;9.10;99.90;;;;;;5090595;28;20032;-67
2022/02/03 15:28:58;;;;;;;10.18;5.57;;;9.20;99.90;;;;;;5072428;28;20067;-67
2022/02/03 15:31:32;;;;;;;9.50;5.72;;;9.00;99.90;;;;;;5078659;28;20036;-66
2022/02/03 15:34:10;;;;;;;8.82;5.57;;;9.00;99.90;;;;;;5092309;28;20794;-67
2022/02/03 15:36:39;;;;;;;10.57;5.68;;;9.00;99.90;;;;;;5108977;28;20502;-67
2022/02/03 15:39:12;;;;;;;9.75;5.20;;;8.90;99.90;;;;;;5091752;28;20050;-68
2022/02/03 15:41:40;;;;;;;7.50;4.63;;;8.90;99.90;;;;;;5091725;28;20864;-67
2022/02/03 15:44:07;;;;;;;8.43;5.20;;;8.90;99.90;;;;;;5110007;28;20130;-66
2022/02/03 15:46:42;;;;;;;9.95;4.88;;;8.80;99.90;;;;;;5108765;28;20050;-67
2022/02/03 15:58:46;;;;;;;10.95;5.75;;;8.70;99.90;;;;;;5104385;28;20040;-67
2022/02/03 16:18:45;;;;;;;8.40;5.22;;;8.50;99.90;;;;;;4976616;28;20059;-67
2022/02/03 16:21:37;;;;;;;9.35;5.50;;;8.50;99.90;;;;;;4970537;28;20046;-67
2022/02/03 16:24:14;;;;;;;8.35;5.22;;;8.40;99.90;;;;;;4980318;28;20078;-67
2022/02/03 16:41:05;;;;;;;9.52;5.45;;;8.30;99.90;;;;;;4977375;28;20054;-67
2022/02/03 16:54:20;;;;;;;11.05;6.95;;;8.20;99.90;;;;;;4988796;28;20120;-67
2022/02/03 16:56:51;;;;;;;13.75;6.95;;;8.10;99.90;;;;;;5099106;28;20040;-67
2022/02/03 16:59:18;;;;;;;14.03;7.10;;;8.10;99.90;;;;;;5112320;28;20035;-66
2022/02/03 17:01:46;;;;;;;9.45;6.20;;;8.00;99.90;;;;;;5110144;28;20285;-67
2022/02/03 17:04:17;;;;;;;9.32;5.88;;;8.00;99.90;;;;;;5107871;28;20465;-68
2022/02/03 17:06:46;;;;;;;10.05;5.50;;;8.00;99.90;;;;;;5104725;28;20063;-68
2022/02/03 17:09:14;;;;;;;9.32;6.00;;;8.00;99.90;;;;;;5111235;28;20040;-68
2022/02/03 17:11:41;;;;;;;9.05;5.60;;;8.00;99.90;;;;;;5085497;28;20387;-68
2022/02/03 17:14:08;;;;;;;10.18;6.10;;;8.10;99.90;;;;;;5103412;28;20585;-68
2022/02/03 17:16:36;;;;;;;11.27;6.47;;;8.10;99.90;;;;;;5099078;28;20053;-68
2022/02/03 17:19:03;;;;;;;13.27;7.35;;;8.20;99.90;;;;;;5112425;28;20070;-68
2022/02/03 17:21:31;;;;;;;11.70;7.18;;;8.10;99.90;;;;;;5111453;28;20125;-69
2022/02/03 17:24:00;;;;;;;10.38;5.60;;;8.20;99.90;;;;;;5090144;28;20510;-68
2022/02/03 17:26:39;;;;;;;9.73;5.80;;;8.10;99.90;;;;;;5092334;28;20035;-68
2022/02/03 17:29:29;;;;;;;10.38;6.50;;;8.10;99.90;;;;;;5108075;28;20035;-68
2022/02/03 17:45:01;;;;;;;12.00;6.57;;;8.10;99.90;;;;;;5105883;28;20042;-68
2022/02/03 18:50:56;;;;;;;13.30;7.53;;;7.90;99.90;;;;;;5020955;28;20049;-68
2022/02/03 18:58:28;;;;;;;13.70;8.77;;;7.80;99.90;;;;;;5037098;28;20133;-69
2022/02/03 19:01:16;;;;;;;12.18;8.20;;;7.80;99.90;;;;;;5026254;28;20049;-68
2022/02/03 20:09:10;;;;;;;13.20;8.82;;;7.50;99.90;;;;;;5025872;28;20516;-67
2022/02/03 20:11:38;;;;;;;15.13;8.48;;;7.40;99.90;;;;;;5036447;28;20135;-68
2022/02/03 20:14:14;;;;;;;12.10;8.35;;;7.40;99.90;;;;;;5028788;28;20042;-68
2022/02/03 20:16:42;;;;;;;13.27;8.98;;;7.50;99.90;;;;;;5026193;28;20437;-67
2022/02/03 20:19:10;;;;;;;13.73;9.63;;;7.50;99.90;;;;;;5027015;28;20091;-68
2022/02/03 20:21:40;;;;;;;16.13;8.52;;;7.50;99.90;;;;;;5026472;28;20053;-67
2022/02/03 20:24:08;;;;;;;13.73;9.98;;;7.50;99.90;;;;;;5026303;28;20060;-69
2022/02/03 20:26:37;;;;;;;13.20;9.13;;;7.50;99.90;;;;;;5027252;28;20050;-69
2022/02/03 20:29:05;;;;;;;12.95;9.38;;;7.40;99.90;;;;;;5027057;28;20077;-68
2022/02/03 20:31:32;;;;;;;21.15;12.73;;;7.30;99.90;;;;;;5025310;28;20045;-68
2022/02/03 20:34:00;;;;;;;17.80;9.57;;;7.30;99.90;;;;;;5019968;28;20518;-68
2022/02/03 20:36:27;;;;;;;14.32;9.65;;;7.30;99.90;;;;;;5027413;28;20046;-68
2022/02/03 20:38:54;;;;;;;14.27;9.75;;;7.30;99.90;;;;;;5087232;28;20456;-68
2022/02/03 20:41:22;;;;;;;15.07;10.75;;;7.30;99.90;;;;;;5101125;28;20050;-66
2022/02/03 20:43:50;;;;;;;15.63;9.82;;;7.20;99.90;;;;;;5080802;28;20492;-67
2022/02/03 20:46:18;;;;;;;14.73;9.55;;;7.20;99.90;;;;;;5095690;28;20456;-68
2022/02/03 20:48:46;;;;;;;17.65;9.93;;;7.10;99.90;;;;;;5108900;28;20509;-67
2022/02/03 20:51:16;;;;;;;15.63;9.85;;;7.10;99.90;;;;;;5109064;28;20487;-68
2022/02/03 20:53:44;;;;;;;17.52;10.40;;;7.10;99.90;;;;;;5108999;28;20047;-69
2022/02/03 20:56:14;;;;;;;15.68;10.68;;;7.00;99.90;;;;;;5099286;28;20048;-68
2022/02/03 20:58:43;;;;;;;17.23;10.65;;;7.00;99.90;;;;;;5103827;28;20795;-69
2022/02/03 21:01:21;;;;;;;15.15;10.20;;;7.00;99.90;;;;;;5101351;28;20456;-66
2022/02/03 21:03:49;;;;;;;16.98;10.13;;;7.00;99.90;;;;;;5098385;28;20467;-68
2022/02/03 21:06:19;;;;;;;18.65;10.73;;;7.00;99.90;;;;;;5097609;28;20459;-67
2022/02/03 21:08:49;;;;;;;17.40;11.60;;;7.00;99.90;;;;;;5101662;28;20558;-68
2022/02/03 21:11:18;;;;;;;13.88;9.93;;;7.00;99.90;;;;;;5106150;28;20128;-66
2022/02/03 21:13:45;;;;;;;15.57;10.68;;;7.00;99.90;;;;;;5106952;28;20573;-68
2022/02/03 21:16:14;;;;;;;14.07;10.07;;;7.00;99.90;;;;;;5111563;28;20035;-66
2022/02/03 21:18:43;;;;;;;15.50;10.68;;;7.00;99.90;;;;;;5111557;28;20055;-69
2022/02/03 21:21:11;;;;;;;17.08;10.38;;;7.00;99.90;;;;;;5106996;28;20509;-67
2022/02/03 21:23:40;;;;;;;23.80;13.80;;;7.00;99.90;;;;;;5111221;28;20504;-67
2022/02/03 21:26:15;;;;;;;16.98;10.73;;;7.00;99.90;;;;;;5082024;28;20051;-67
2022/02/03 21:28:47;;;;;;;16.17;9.57;;;7.10;99.90;;;;;;5109612;28;20514;-68
2022/02/03 21:31:15;;;;;;;14.57;9.93;;;7.10;99.90;;;;;;5107955;28;20518;-67
2022/02/03 21:33:48;;;;;;;14.80;9.57;;;7.00;99.90;;;;;;5112128;28;20506;-68
2022/02/03 21:36:17;;;;;;;14.48;10.15;;;7.00;99.90;;;;;;5074554;28;20041;-68
2022/02/03 21:38:45;;;;;;;14.73;9.85;;;7.10;99.90;;;;;;5095858;28;20059;-68
2022/02/03 21:41:13;;;;;;;14.77;10.18;;;7.10;99.90;;;;;;5098754;28;20040;-68
2022/02/03 21:43:41;;;;;;;12.95;9.10;;;7.10;99.90;;;;;;5087921;28;20154;-68
2022/02/03 21:46:10;;;;;;;15.07;10.00;;;7.10;99.90;;;;;;5102696;28;20048;-68
2022/02/03 21:48:40;;;;;;;11.93;8.63;;;7.10;99.90;;;;;;5091308;27;20715;-67
2022/02/03 21:51:08;;;;;;;12.90;8.88;;;7.10;99.90;;;;;;5088012;28;20215;-68
2022/02/03 21:53:36;;;;;;;12.57;8.88;;;7.00;99.90;;;;;;5104300;27;20525;-67
2022/02/03 21:56:04;;;;;;;12.88;8.80;;;7.00;99.90;;;;;;5075995;28;20461;-67
2022/02/03 21:58:31;;;;;;;13.88;8.82;;;7.10;99.90;;;;;;5087283;28;20143;-69
2022/02/03 22:01:00;;;;;;;14.32;9.43;;;7.00;99.90;;;;;;5102753;28;20463;-67
2022/02/03 22:03:28;;;;;;;12.25;8.50;;;7.00;99.90;;;;;;5106655;28;20043;-67
2022/02/03 22:06:00;;;;;;;13.48;8.63;;;7.00;99.90;;;;;;5110408;28;20040;-67
2022/02/03 22:08:28;;;;;;;12.73;9.10;;;7.10;99.90;;;;;;5110158;28;20050;-68
2022/02/03 22:11:00;;;;;;;12.48;9.02;;;7.00;99.90;;;;;;5111834;28;20427;-67
2022/02/03 22:13:35;;;;;;;13.15;8.57;;;7.00;99.90;;;;;;5092776;28;20066;-67
2022/02/03 22:16:12;;;;;;;11.88;8.68;;;7.00;99.90;;;;;;5109913;28;20092;-68
2022/02/03 22:18:39;;;;;;;11.85;8.52;;;7.10;99.90;;;;;;5109551;27;20495;-68
2022/02/03 22:21:19;;;;;;;12.63;8.05;;;7.00;99.90;;;;;;5091866;28;20040;-66
2022/02/03 22:40:34;;;;;;;9.55;6.38;;;6.90;99.90;;;;;;5097174;28;20043;-67
2022/02/03 22:42:34;;;;;;;10.02;6.75;;;6.90;99.90;;;;;;5091060;28;20079;-68
2022/02/03 22:50:07;;;;;;;9.05;5.22;;;6.90;99.90;;;;;;5091720;28;20077;-67
2022/02/03 22:52:40;;;;;;;8.32;5.00;;;6.90;99.90;;;;;;5109200;28;20035;-66
2022/02/03 22:55:07;;;;;;;7.60;4.73;;;6.90;99.90;;;;;;5075839;28;20064;-68
2022/02/03 22:57:35;;;;;;;6.88;4.55;;;6.90;99.90;;;;;;5097297;28;20285;-66
2022/02/03 23:00:14;;;;;;;7.05;4.38;;;6.90;99.90;;;;;;5109638;28;20500;-67
2022/02/03 23:02:42;;;;;;;8.10;4.55;;;6.90;99.90;;;;;;5105427;28;20126;-67
2022/02/03 23:05:12;;;;;;;9.65;5.00;;;6.80;99.90;;;;;;5108943;28;20092;-67
2022/02/03 23:08:04;;;;;;;6.47;4.05;;;6.80;99.90;;;;;;5091775;28;20051;-68
2022/02/03 23:11:00;;;;;;;7.90;4.43;;;6.80;99.90;;;;;;5106884;28;20032;-66
2022/02/03 23:23:43;;;;;;;8.35;4.97;;;6.70;99.90;;;;;;5105146;28;20084;-65
2022/02/03 23:26:10;;;;;;;6.90;4.10;;;6.70;99.90;;;;;;5108256;28;20032;-67
2022/02/03 23:28:38;;;;;;;8.05;4.45;;;6.70;99.90;;;;;;5108523;28;20039;-66
2022/02/03 23:31:05;;;;;;;7.95;4.70;;;6.60;99.90;;;;;;5081538;28;20053;-67
2022/02/03 23:33:33;;;;;;;7.60;4.70;;;6.70;99.90;;;;;;5097462;28;20341;-67
2022/02/03 23:36:01;;;;;;;6.80;4.40;;;6.60;99.90;;;;;;5077854;28;20553;-67
2022/02/03 23:49:52;;;;;;;9.30;5.28;;;6.60;99.90;;;;;;5053555;28;20301;-66
